Time;durP1;ratioP1;P1;durP2;ratioP2;P2;SDS_P1;SDS_P2;PMS_P1;PMS_P2;Temp;Humidity;BMP_temperature;BMP_pressure;BME280_temperature;BME280_humidity;BME280_pressure;Samples;Min_cycle;Max_cycle;Signal;HPM_P1;HPM_P2
2023/03/08 00:00:01;;;;;;;2.20;2.10;;;7.50;72.20;;;;;;928487;151;27370;-76
2023/03/08 00:02:28;;;;;;;1.87;1.77;;;7.50;72.30;;;;;;924544;151;27402;-76
2023/03/08 00:04:55;;;;;;;2.10;1.90;;;7.50;72.60;;;;;;926653;151;27359;-76
2023/03/08 00:07:21;;;;;;;1.77;1.67;;;7.40;72.50;;;;;;925263;151;27410;-76
2023/03/08 00:09:48;;;;;;;1.63;1.53;;;7.40;72.60;;;;;;925250;151;27371;-76
2023/03/08 00:12:18;;;;;;;2.10;1.90;;;7.40;72.70;;;;;;926812;151;27504;-76
2023/03/08 00:14:41;;;;;;;2.37;2.17;;;7.40;72.80;;;;;;925620;151;27471;-76
2023/03/08 00:17:07;;;;;;;2.37;2.17;;;7.40;72.80;;;;;;926345;151;27463;-76
2023/03/08 00:19:34;;;;;;;2.40;2.23;;;7.40;72.90;;;;;;925223;151;27445;-76
2023/03/08 00:22:01;;;;;;;2.53;2.37;;;7.40;73.10;;;;;;925332;151;27395;-76
2023/03/08 00:24:27;;;;;;;2.37;2.20;;;7.40;73.20;;;;;;927567;151;27407;-76
2023/03/08 00:26:54;;;;;;;2.70;2.50;;;7.40;73.40;;;;;;923764;151;27465;-76
2023/03/08 00:29:21;;;;;;;2.67;2.47;;;7.40;73.40;;;;;;921945;151;27375;-76
2023/03/08 00:31:47;;;;;;;3.07;2.87;;;7.40;73.50;;;;;;923708;151;27491;-76
2023/03/08 00:34:14;;;;;;;2.47;2.27;;;7.40;74.30;;;;;;923093;151;27918;-76
2023/03/08 00:36:40;;;;;;;2.93;2.73;;;7.40;73.60;;;;;;940993;148;28890;-76
2023/03/08 00:39:07;;;;;;;2.53;2.33;;;7.40;73.60;;;;;;925858;151;27384;-76
2023/03/08 00:41:33;;;;;;;2.63;2.47;;;7.40;73.60;;;;;;902943;154;27484;-76
2023/03/08 00:44:00;;;;;;;2.53;2.33;;;7.40;73.70;;;;;;917660;152;27394;-76
2023/03/08 00:46:27;;;;;;;2.87;2.67;;;7.40;73.80;;;;;;925263;151;27381;-76
2023/03/08 00:48:53;;;;;;;2.37;2.17;;;7.40;73.90;;;;;;918151;152;27413;-76
2023/03/08 00:51:20;;;;;;;2.03;1.93;;;7.40;73.90;;;;;;925079;151;27333;-76
2023/03/08 00:53:46;;;;;;;2.20;2.10;;;7.30;73.90;;;;;;920379;151;27364;-76
2023/03/08 00:56:13;;;;;;;1.80;1.70;;;7.40;74.20;;;;;;905121;154;27761;-76
2023/03/08 00:58:39;;;;;;;1.93;1.83;;;7.40;74.00;;;;;;921093;154;27437;-76
2023/03/08 01:01:06;;;;;;;2.17;2.00;;;7.40;73.90;;;;;;918972;152;27372;-76
2023/03/08 01:03:33;;;;;;;2.00;1.90;;;7.40;73.70;;;;;;904148;154;27366;-76
2023/03/08 01:05:59;;;;;;;1.97;1.87;;;7.40;73.70;;;;;;922913;151;27383;-76
2023/03/08 01:08:26;;;;;;;2.03;1.93;;;7.40;73.90;;;;;;936923;148;27543;-76
2023/03/08 01:10:52;;;;;;;1.97;1.77;;;7.40;73.90;;;;;;905362;154;27446;-76
2023/03/08 01:13:19;;;;;;;2.00;1.90;;;7.40;74.30;;;;;;917957;152;27324;-76
2023/03/08 01:15:46;;;;;;;1.70;1.60;;;7.40;73.90;;;;;;902295;154;27379;-75
2023/03/08 01:18:12;;;;;;;1.97;1.77;;;7.40;73.90;;;;;;903157;154;27429;-75
2023/03/08 01:20:39;;;;;;;2.23;1.97;;;7.40;73.90;;;;;;902329;154;27412;-75
2023/03/08 01:23:05;;;;;;;1.93;1.83;;;7.40;73.90;;;;;;938956;148;27336;-76
2023/03/08 01:25:32;;;;;;;1.87;1.77;;;7.40;74.00;;;;;;924572;151;27343;-75
2023/03/08 01:27:58;;;;;;;1.90;1.80;;;7.40;74.00;;;;;;910242;153;27509;-76
2023/03/08 01:30:25;;;;;;;2.23;2.03;;;7.40;74.00;;;;;;909493;154;27420;-75
2023/03/08 01:32:52;;;;;;;1.80;1.70;;;7.40;74.10;;;;;;927471;151;27362;-75
2023/03/08 01:35:18;;;;;;;1.90;1.80;;;7.40;74.20;;;;;;926066;151;27411;-75
2023/03/08 01:37:45;;;;;;;1.80;1.70;;;7.40;74.20;;;;;;926812;151;27334;-75
2023/03/08 01:40:11;;;;;;;2.10;1.90;;;7.40;74.20;;;;;;928367;151;27410;-75
2023/03/08 01:42:39;;;;;;;1.97;1.87;;;7.40;74.20;;;;;;908901;153;27729;-76
2023/03/08 01:45:05;;;;;;;2.00;1.90;;;7.40;74.20;;;;;;910411;153;27371;-76
2023/03/08 01:47:31;;;;;;;1.77;1.67;;;7.40;74.30;;;;;;911099;153;27373;-77
2023/03/08 01:50:04;;;;;;;1.90;1.80;;;7.40;74.20;;;;;;908962;153;27404;-76
2023/03/08 01:52:36;;;;;;;1.87;1.77;;;7.40;74.30;;;;;;926111;151;27806;-76
2023/03/08 01:55:05;;;;;;;1.80;1.70;;;7.40;74.30;;;;;;907653;153;27501;-76
2023/03/08 01:57:41;;;;;;;2.53;1.73;;;7.40;74.30;;;;;;910268;153;27410;-76
2023/03/08 02:00:10;;;;;;;2.17;1.97;;;7.40;74.40;;;;;;922298;151;27464;-76
2023/03/08 02:02:37;;;;;;;2.20;2.00;;;7.40;74.30;;;;;;925160;151;27735;-76
2023/03/08 02:05:03;;;;;;;2.30;2.10;;;7.40;74.30;;;;;;907336;154;27372;-76
2023/03/08 02:07:30;;;;;;;2.07;1.97;;;7.30;74.30;;;;;;926053;151;27467;-76
2023/03/08 02:09:56;;;;;;;2.50;2.10;;;7.40;74.40;;;;;;909248;153;27469;-76
2023/03/08 02:12:23;;;;;;;1.80;1.70;;;7.30;74.30;;;;;;912265;153;27404;-76
2023/03/08 02:14:50;;;;;;;2.10;1.90;;;7.30;74.30;;;;;;926778;151;27443;-76
2023/03/08 02:17:16;;;;;;;1.90;1.77;;;7.30;74.30;;;;;;924240;151;27372;-76
2023/03/08 02:19:49;;;;;;;2.00;1.90;;;7.30;74.40;;;;;;914530;153;27503;-76
2023/03/08 02:22:16;;;;;;;2.17;1.97;;;7.30;74.50;;;;;;910362;153;27391;-76
2023/03/08 02:24:42;;;;;;;1.93;1.83;;;7.30;74.50;;;;;;925537;151;27372;-76
2023/03/08 02:27:11;;;;;;;1.80;1.70;;;7.30;74.50;;;;;;922325;153;27791;-76
2023/03/08 02:29:38;;;;;;;1.87;1.77;;;7.30;74.60;;;;;;907339;154;27530;-75
2023/03/08 02:32:05;;;;;;;2.30;2.10;;;7.30;74.70;;;;;;922533;151;27354;-76
2023/03/08 02:34:31;;;;;;;1.87;1.77;;;7.30;74.70;;;;;;925004;151;27357;-76
2023/03/08 02:36:58;;;;;;;2.20;2.00;;;7.20;74.60;;;;;;929273;150;27350;-76
2023/03/08 02:39:24;;;;;;;1.97;1.87;;;7.20;74.70;;;;;;909484;152;27368;-76
2023/03/08 02:41:51;;;;;;;2.00;1.90;;;7.20;75.10;;;;;;923787;151;27395;-75
2023/03/08 02:44:18;;;;;;;1.90;1.80;;;7.20;74.60;;;;;;907486;154;27456;-75
2023/03/08 02:46:44;;;;;;;2.00;1.90;;;7.20;74.70;;;;;;907012;154;27441;-76
2023/03/08 02:49:11;;;;;;;2.00;1.90;;;7.20;74.70;;;;;;908491;154;27840;-75
2023/03/08 02:51:37;;;;;;;2.30;2.13;;;7.20;74.60;;;;;;909222;153;27426;-75
2023/03/08 02:54:04;;;;;;;2.30;2.20;;;7.20;74.70;;;;;;925584;151;27398;-75
2023/03/08 02:56:30;;;;;;;2.13;1.97;;;7.20;74.80;;;;;;908574;154;27462;-75
2023/03/08 02:58:57;;;;;;;2.23;1.93;;;7.20;75.60;;;;;;910736;153;27418;-76
2023/03/08 03:01:24;;;;;;;2.63;2.43;;;7.20;74.90;;;;;;928321;150;27366;-76
2023/03/08 03:03:50;;;;;;;2.43;2.23;;;7.20;75.00;;;;;;927520;153;27371;-76
2023/03/08 03:06:17;;;;;;;2.43;2.23;;;7.10;74.90;;;;;;925556;150;27289;-76
2023/03/08 03:08:43;;;;;;;3.43;2.70;;;7.20;75.00;;;;;;925444;150;27490;-74
2023/03/08 03:11:10;;;;;;;2.80;2.60;;;7.10;75.00;;;;;;926916;153;27549;-73
2023/03/08 03:13:37;;;;;;;3.10;2.80;;;7.10;75.10;;;;;;916848;153;27473;-73
2023/03/08 03:16:06;;;;;;;2.43;2.23;;;7.10;75.10;;;;;;908507;154;27405;-74
2023/03/08 03:18:33;;;;;;;2.50;2.30;;;7.10;75.10;;;;;;908881;153;27364;-73
2023/03/08 03:21:05;;;;;;;2.83;2.53;;;7.10;75.10;;;;;;925830;150;27351;-73
2023/03/08 03:23:31;;;;;;;2.57;2.37;;;7.10;75.10;;;;;;924380;151;27381;-73
2023/03/08 03:26:04;;;;;;;2.83;2.30;;;7.10;75.20;;;;;;925206;150;27475;-73
2023/03/08 03:28:30;;;;;;;2.33;2.13;;;7.10;75.30;;;;;;925657;150;27425;-73
2023/03/08 03:30:57;;;;;;;2.90;2.70;;;7.10;75.40;;;;;;924295;151;27463;-73
2023/03/08 03:33:23;;;;;;;2.50;2.30;;;7.10;75.40;;;;;;923464;151;27394;-73
2023/03/08 03:35:50;;;;;;;2.40;2.20;;;7.10;74.80;;;;;;923146;151;27368;-73
2023/03/08 03:38:17;;;;;;;2.60;2.40;;;7.10;75.50;;;;;;923816;151;27359;-73
2023/03/08 03:40:43;;;;;;;2.90;2.70;;;7.10;75.50;;;;;;923596;151;27392;-73
2023/03/08 03:43:10;;;;;;;2.80;2.60;;;7.10;75.60;;;;;;924829;151;27397;-73
2023/03/08 03:45:36;;;;;;;3.87;2.37;;;7.10;75.60;;;;;;924857;151;29032;-73
2023/03/08 03:48:03;;;;;;;2.50;2.30;;;7.10;75.90;;;;;;924504;151;27377;-73
2023/03/08 03:50:29;;;;;;;2.80;2.60;;;7.10;75.70;;;;;;923523;151;27446;-73
2023/03/08 03:52:56;;;;;;;3.03;2.73;;;7.10;75.70;;;;;;921817;151;27376;-73
2023/03/08 03:55:23;;;;;;;2.80;2.40;;;7.10;75.70;;;;;;922991;151;27501;-73
2023/03/08 03:57:49;;;;;;;2.60;2.40;;;7.10;75.80;;;;;;922574;151;27376;-73
2023/03/08 04:00:16;;;;;;;2.83;2.40;;;7.20;75.90;;;;;;921846;151;27347;-73
2023/03/08 04:02:43;;;;;;;3.20;2.90;;;7.20;76.00;;;;;;923274;151;27339;-73
2023/03/08 04:05:09;;;;;;;2.67;2.47;;;7.20;76.20;;;;;;924613;151;27400;-72
2023/03/08 04:07:36;;;;;;;3.20;2.87;;;7.20;77.10;;;;;;923002;151;27374;-72
2023/03/08 04:10:02;;;;;;;3.43;3.13;;;7.20;76.40;;;;;;924294;151;27382;-72
2023/03/08 04:12:29;;;;;;;3.20;2.90;;;7.20;76.30;;;;;;925113;151;27438;-73
2023/03/08 04:14:55;;;;;;;3.80;3.33;;;7.20;76.40;;;;;;923147;151;27512;-73
2023/03/08 04:17:22;;;;;;;3.63;3.30;;;7.20;76.50;;;;;;923089;151;27394;-72
2023/03/08 04:19:49;;;;;;;4.00;3.60;;;7.10;76.40;;;;;;922550;151;27495;-73
2023/03/08 04:22:15;;;;;;;5.13;3.87;;;7.10;76.20;;;;;;923497;151;27466;-73
2023/03/08 04:24:42;;;;;;;5.40;4.90;;;7.10;76.00;;;;;;922506;151;27445;-73
2023/03/08 04:27:08;;;;;;;5.80;5.00;;;7.10;76.00;;;;;;921298;151;27408;-73
2023/03/08 04:29:35;;;;;;;6.47;5.53;;;7.10;75.90;;;;;;923494;151;27482;-73
2023/03/08 04:32:02;;;;;;;8.13;6.33;;;7.10;76.00;;;;;;923850;151;27469;-72
2023/03/08 04:34:28;;;;;;;7.00;6.03;;;7.10;75.70;;;;;;921058;151;27668;-73
2023/03/08 04:36:55;;;;;;;6.37;5.77;;;7.00;75.50;;;;;;923497;151;27378;-73
2023/03/08 04:39:21;;;;;;;7.43;6.40;;;7.00;75.60;;;;;;908241;154;27395;-73
2023/03/08 04:41:48;;;;;;;7.60;6.23;;;7.10;75.60;;;;;;917111;152;27363;-73
2023/03/08 04:44:15;;;;;;;8.27;6.17;;;7.10;75.60;;;;;;923394;151;27375;-73
2023/03/08 04:46:41;;;;;;;7.23;6.10;;;7.10;75.50;;;;;;920050;151;27331;-73
2023/03/08 04:49:08;;;;;;;7.60;5.53;;;7.10;75.40;;;;;;902703;153;27448;-73
2023/03/08 04:51:34;;;;;;;8.37;6.27;;;7.10;75.60;;;;;;924107;151;27346;-73
2023/03/08 04:54:03;;;;;;;7.03;5.90;;;7.10;75.80;;;;;;940306;148;27340;-73
2023/03/08 04:56:27;;;;;;;7.13;6.43;;;7.10;75.60;;;;;;906913;154;27392;-73
2023/03/08 04:58:54;;;;;;;8.13;6.17;;;7.10;75.30;;;;;;904444;155;27904;-73
2023/03/08 05:01:23;;;;;;;6.67;5.97;;;7.10;75.30;;;;;;911026;154;27478;-73
2023/03/08 05:03:50;;;;;;;6.90;6.20;;;7.10;75.40;;;;;;903086;155;27387;-73
2023/03/08 05:06:17;;;;;;;6.67;5.90;;;7.10;75.40;;;;;;902989;154;27398;-73
2023/03/08 05:08:43;;;;;;;6.43;5.67;;;7.20;75.40;;;;;;901088;154;27453;-73
2023/03/08 05:11:10;;;;;;;8.07;6.20;;;7.20;75.40;;;;;;903055;155;27434;-73
2023/03/08 05:13:37;;;;;;;7.00;6.23;;;7.20;75.40;;;;;;901639;154;27399;-73
2023/03/08 05:16:03;;;;;;;6.20;5.60;;;7.20;75.40;;;;;;913213;154;27368;-73
2023/03/08 05:18:30;;;;;;;7.23;6.30;;;7.30;75.60;;;;;;911866;154;27397;-73
2023/03/08 05:20:59;;;;;;;7.20;5.87;;;7.30;75.70;;;;;;913006;154;27463;-73
2023/03/08 05:23:26;;;;;;;6.37;5.67;;;7.30;75.50;;;;;;904014;155;27386;-73
2023/03/08 05:25:52;;;;;;;7.97;6.30;;;7.40;75.40;;;;;;902983;154;27480;-73
2023/03/08 05:28:19;;;;;;;8.40;6.87;;;7.40;75.30;;;;;;922740;151;27369;-73
2023/03/08 05:30:45;;;;;;;7.77;6.53;;;7.40;75.10;;;;;;939206;148;27425;-73
2023/03/08 05:33:12;;;;;;;8.13;5.67;;;7.40;74.60;;;;;;903635;154;27507;-73
2023/03/08 05:35:39;;;;;;;8.43;6.57;;;7.40;74.50;;;;;;923113;151;27711;-73
2023/03/08 05:38:05;;;;;;;6.90;6.10;;;7.40;74.30;;;;;;940546;148;28026;-73
2023/03/08 05:40:32;;;;;;;8.50;6.17;;;7.40;74.20;;;;;;940907;148;27324;-73
2023/03/08 05:42:58;;;;;;;8.23;7.23;;;7.40;74.20;;;;;;922927;151;27423;-73
2023/03/08 05:45:25;;;;;;;6.70;5.93;;;7.40;74.00;;;;;;922446;151;27355;-73
2023/03/08 05:47:52;;;;;;;7.77;6.00;;;7.50;74.10;;;;;;936728;148;27398;-73
2023/03/08 05:50:18;;;;;;;6.73;6.10;;;7.50;74.20;;;;;;925618;151;27376;-73
2023/03/08 05:52:46;;;;;;;7.77;5.97;;;7.50;74.10;;;;;;918650;152;27501;-73
2023/03/08 05:55:12;;;;;;;7.80;6.23;;;7.50;74.00;;;;;;901492;154;27410;-73
2023/03/08 05:57:38;;;;;;;7.67;6.87;;;7.50;74.10;;;;;;903878;154;27481;-73
2023/03/08 06:00:04;;;;;;;7.80;6.50;;;7.50;74.10;;;;;;938540;148;27426;-73
2023/03/08 06:02:31;;;;;;;7.17;6.47;;;7.50;74.10;;;;;;925624;151;27405;-73
2023/03/08 06:04:58;;;;;;;8.43;6.53;;;7.50;74.20;;;;;;924652;151;27404;-72
2023/03/08 06:07:24;;;;;;;7.03;6.00;;;7.40;74.20;;;;;;921557;151;27397;-73
2023/03/08 06:09:51;;;;;;;7.97;6.73;;;7.40;74.10;;;;;;918071;151;27368;-73
2023/03/08 06:12:17;;;;;;;8.17;6.43;;;7.40;74.10;;;;;;912073;154;27350;-73
2023/03/08 06:14:44;;;;;;;7.43;6.10;;;7.40;74.20;;;;;;902016;155;27434;-73
2023/03/08 06:17:11;;;;;;;7.73;6.73;;;7.40;74.20;;;;;;911551;153;27382;-72
2023/03/08 06:19:37;;;;;;;7.13;6.17;;;7.40;74.30;;;;;;901713;155;27379;-72
2023/03/08 06:22:04;;;;;;;7.60;6.67;;;7.40;74.60;;;;;;919364;150;27629;-73
2023/03/08 06:24:30;;;;;;;7.13;6.43;;;7.40;74.50;;;;;;920789;151;27542;-73
2023/03/08 06:26:58;;;;;;;8.07;6.00;;;7.30;74.40;;;;;;905044;154;27444;-73
2023/03/08 06:29:23;;;;;;;6.57;5.90;;;7.30;74.50;;;;;;923849;151;27332;-73
2023/03/08 06:31:50;;;;;;;7.70;6.37;;;7.30;74.60;;;;;;923555;151;27419;-73
2023/03/08 06:34:17;;;;;;;8.40;6.30;;;7.30;74.90;;;;;;941442;148;27312;-73
2023/03/08 06:36:43;;;;;;;7.63;6.30;;;7.30;75.00;;;;;;938274;148;27916;-73
2023/03/08 06:39:10;;;;;;;8.67;6.13;;;7.30;74.50;;;;;;903643;155;27509;-73
2023/03/08 06:41:36;;;;;;;7.37;6.57;;;7.30;75.40;;;;;;903648;155;27495;-73
2023/03/08 06:44:03;;;;;;;7.60;6.30;;;7.30;75.40;;;;;;904268;153;27478;-73
2023/03/08 06:46:30;;;;;;;8.03;6.00;;;7.20;75.30;;;;;;911134;154;27420;-73
2023/03/08 06:48:56;;;;;;;6.97;6.27;;;7.30;75.40;;;;;;918456;152;28060;-73
2023/03/08 06:51:23;;;;;;;7.60;6.43;;;7.30;75.60;;;;;;905269;153;27327;-73
2023/03/08 06:53:49;;;;;;;10.00;6.70;;;7.20;75.50;;;;;;924739;151;27756;-73
2023/03/08 06:56:16;;;;;;;6.90;6.10;;;7.20;75.60;;;;;;939687;148;27800;-73
2023/03/08 06:58:43;;;;;;;5.80;5.20;;;7.20;75.50;;;;;;925306;151;27386;-74
2023/03/08 07:01:09;;;;;;;7.73;6.30;;;7.10;75.40;;;;;;904667;155;27393;-73
2023/03/08 07:03:36;;;;;;;6.57;5.93;;;7.10;75.50;;;;;;902819;154;27403;-73
2023/03/08 07:06:02;;;;;;;7.37;6.47;;;7.00;75.60;;;;;;919154;152;27484;-73
2023/03/08 07:08:29;;;;;;;6.43;5.83;;;7.00;75.60;;;;;;901001;155;27555;-73
2023/03/08 07:10:57;;;;;;;8.07;6.00;;;7.00;75.80;;;;;;903866;155;27512;-73
2023/03/08 07:13:22;;;;;;;7.10;5.90;;;6.90;75.90;;;;;;919350;152;27457;-73
2023/03/08 07:15:49;;;;;;;6.50;5.83;;;6.90;76.00;;;;;;919418;152;27361;-73
2023/03/08 07:18:15;;;;;;;9.63;6.73;;;6.90;76.20;;;;;;903312;154;27538;-73
2023/03/08 07:20:42;;;;;;;7.97;5.90;;;6.80;76.40;;;;;;924503;151;27371;-73
2023/03/08 07:23:08;;;;;;;7.90;6.50;;;6.80;76.20;;;;;;939323;148;27459;-74
2023/03/08 07:25:35;;;;;;;8.03;6.67;;;6.70;76.50;;;;;;923751;151;27856;-73
2023/03/08 07:28:02;;;;;;;8.83;6.33;;;6.70;76.70;;;;;;920668;152;27380;-75
2023/03/08 07:30:28;;;;;;;8.87;7.00;;;6.60;76.70;;;;;;915508;152;27498;-75
2023/03/08 07:32:55;;;;;;;8.73;6.83;;;6.60;76.70;;;;;;925218;151;27513;-73
2023/03/08 07:35:21;;;;;;;7.07;6.30;;;6.60;76.90;;;;;;903069;154;27377;-74
2023/03/08 07:37:48;;;;;;;6.40;5.80;;;6.60;77.10;;;;;;938788;148;27286;-73
2023/03/08 07:40:15;;;;;;;7.27;6.20;;;6.60;77.30;;;;;;939032;148;27372;-74
2023/03/08 07:42:41;;;;;;;8.70;6.10;;;6.50;77.20;;;;;;924463;151;27399;-74
2023/03/08 07:45:08;;;;;;;6.27;5.67;;;6.50;77.30;;;;;;904643;154;27921;-74
2023/03/08 07:47:34;;;;;;;8.33;6.60;;;6.50;77.30;;;;;;900809;155;27366;-74
2023/03/08 07:50:01;;;;;;;8.47;7.37;;;6.40;77.50;;;;;;903884;153;27494;-73
2023/03/08 07:52:27;;;;;;;6.87;6.17;;;6.40;77.80;;;;;;904801;153;27448;-73
2023/03/08 07:54:54;;;;;;;7.40;6.47;;;6.40;78.10;;;;;;902803;154;27331;-73
2023/03/08 07:57:21;;;;;;;8.23;6.60;;;6.30;77.90;;;;;;939775;148;27337;-73
2023/03/08 07:59:47;;;;;;;8.20;6.37;;;6.30;78.40;;;;;;923499;150;27386;-73
2023/03/08 08:02:14;;;;;;;7.53;6.07;;;6.30;78.50;;;;;;903227;153;27426;-73
2023/03/08 08:04:40;;;;;;;8.83;6.97;;;6.30;78.70;;;;;;918132;152;27361;-73
2023/03/08 08:07:07;;;;;;;7.70;6.43;;;6.20;78.80;;;;;;905714;154;27391;-73
2023/03/08 08:09:36;;;;;;;11.03;6.50;;;6.20;79.00;;;;;;905424;154;27514;-73
2023/03/08 08:12:00;;;;;;;8.23;6.37;;;6.20;79.00;;;;;;922062;151;27476;-73
2023/03/08 08:14:27;;;;;;;8.10;6.60;;;6.10;79.20;;;;;;939034;148;27389;-73
2023/03/08 08:16:53;;;;;;;8.10;6.60;;;6.10;79.10;;;;;;923903;150;27470;-73
2023/03/08 08:19:20;;;;;;;8.90;6.40;;;6.10;79.20;;;;;;918402;152;27330;-73
2023/03/08 08:21:46;;;;;;;8.67;7.30;;;6.10;79.50;;;;;;917994;151;27361;-73
2023/03/08 08:24:13;;;;;;;8.63;6.70;;;6.00;79.20;;;;;;922437;151;27412;-73
2023/03/08 08:26:40;;;;;;;8.73;6.87;;;6.00;79.40;;;;;;922442;151;27395;-73
2023/03/08 08:29:06;;;;;;;9.63;6.67;;;6.00;79.40;;;;;;919818;151;27412;-73
2023/03/08 08:31:33;;;;;;;9.10;6.83;;;5.90;79.20;;;;;;924463;151;27299;-73
2023/03/08 08:33:59;;;;;;;8.53;6.60;;;5.90;79.40;;;;;;927910;150;27401;-73
2023/03/08 08:36:26;;;;;;;9.07;6.47;;;5.80;79.70;;;;;;929494;150;27398;-73
2023/03/08 08:38:53;;;;;;;8.47;7.20;;;5.80;80.00;;;;;;930091;150;27367;-75
2023/03/08 08:41:19;;;;;;;9.40;6.67;;;5.80;80.70;;;;;;929739;150;27439;-75
2023/03/08 08:43:46;;;;;;;8.80;6.50;;;5.80;80.80;;;;;;927478;150;27367;-75
2023/03/08 08:46:12;;;;;;;7.73;6.93;;;5.70;80.80;;;;;;927846;150;27518;-75
2023/03/08 08:48:39;;;;;;;8.13;6.40;;;5.70;81.00;;;;;;923171;151;27368;-73
2023/03/08 08:51:05;;;;;;;10.57;6.83;;;5.70;81.20;;;;;;927550;150;28057;-73
2023/03/08 08:53:32;;;;;;;8.80;7.43;;;5.70;81.60;;;;;;930076;150;27440;-73
2023/03/08 08:55:59;;;;;;;8.73;6.97;;;5.70;81.20;;;;;;927226;150;27423;-73
2023/03/08 08:58:25;;;;;;;9.77;7.33;;;5.70;81.50;;;;;;924591;151;27332;-73
2023/03/08 09:00:52;;;;;;;9.20;7.80;;;5.70;81.70;;;;;;928202;150;27711;-73
2023/03/08 09:03:18;;;;;;;8.67;6.97;;;5.70;82.10;;;;;;927826;150;27390;-73
2023/03/08 09:05:45;;;;;;;9.17;6.93;;;5.70;82.00;;;;;;928703;150;27414;-73
2023/03/08 09:08:12;;;;;;;10.00;7.23;;;5.70;82.10;;;;;;931593;150;27800;-73
2023/03/08 09:10:38;;;;;;;8.80;7.67;;;5.70;82.20;;;;;;930800;150;27349;-73
2023/03/08 09:13:05;;;;;;;8.53;7.23;;;5.70;82.70;;;;;;929866;150;27469;-73
2023/03/08 09:15:31;;;;;;;10.37;7.83;;;5.70;83.10;;;;;;929752;150;27393;-72
2023/03/08 09:17:58;;;;;;;9.17;7.33;;;5.80;83.20;;;;;;929036;150;27365;-73
2023/03/08 09:20:24;;;;;;;9.73;8.10;;;5.80;83.50;;;;;;927823;150;27363;-73
2023/03/08 09:22:51;;;;;;;9.63;8.50;;;5.80;83.80;;;;;;930666;150;27753;-72
2023/03/08 09:25:19;;;;;;;11.23;8.23;;;5.80;83.90;;;;;;927845;150;27838;-73
2023/03/08 09:27:44;;;;;;;10.90;8.30;;;5.80;84.40;;;;;;945885;147;27444;-73
2023/03/08 09:30:11;;;;;;;8.63;7.77;;;5.80;84.90;;;;;;944414;148;27525;-73
2023/03/08 09:32:38;;;;;;;9.87;8.73;;;5.80;85.50;;;;;;943288;148;27402;-73
2023/03/08 09:35:04;;;;;;;10.90;8.30;;;5.90;86.00;;;;;;941821;148;27738;-73
2023/03/08 09:37:31;;;;;;;8.33;7.43;;;5.90;86.00;;;;;;940333;148;27392;-73
2023/03/08 09:39:57;;;;;;;9.80;8.07;;;6.00;86.50;;;;;;939698;148;27385;-73
2023/03/08 09:42:26;;;;;;;10.93;8.00;;;6.00;86.40;;;;;;942197;148;27384;-73
2023/03/08 09:44:59;;;;;;;9.73;7.97;;;6.00;86.60;;;;;;939641;148;27393;-74
2023/03/08 09:47:41;;;;;;;9.80;7.37;;;6.10;86.60;;;;;;913120;153;27446;-75
2023/03/08 09:50:14;;;;;;;9.40;7.80;;;6.10;86.60;;;;;;908118;153;27572;-75
2023/03/08 09:52:43;;;;;;;8.57;7.67;;;6.20;86.40;;;;;;925076;150;27395;-75
2023/03/08 09:55:12;;;;;;;9.37;7.43;;;6.20;86.40;;;;;;908919;153;27486;-75
2023/03/08 09:57:39;;;;;;;8.80;7.60;;;6.30;87.20;;;;;;917290;153;27425;-75
2023/03/08 10:00:10;;;;;;;9.33;7.57;;;6.30;87.50;;;;;;910236;153;27440;-75
2023/03/08 10:02:50;;;;;;;9.03;7.53;;;6.30;87.80;;;;;;921862;153;27360;-75
2023/03/08 10:05:22;;;;;;;8.97;7.43;;;6.30;87.80;;;;;;923758;151;27420;-75
2023/03/08 10:07:57;;;;;;;9.23;8.03;;;6.30;87.90;;;;;;922173;154;27412;-75
2023/03/08 10:10:44;;;;;;;9.90;7.53;;;6.40;88.20;;;;;;918409;153;27529;-75
2023/03/08 10:13:32;;;;;;;8.70;7.43;;;6.30;88.50;;;;;;915315;153;27341;-75
2023/03/08 10:16:10;;;;;;;8.07;6.77;;;6.30;88.40;;;;;;908648;153;27375;-74
2023/03/08 10:18:58;;;;;;;8.50;7.37;;;6.40;88.30;;;;;;926319;151;27380;-74
2023/03/08 10:21:25;;;;;;;8.90;7.03;;;6.40;88.80;;;;;;909006;153;27476;-74
2023/03/08 10:24:06;;;;;;;10.33;7.53;;;6.40;88.60;;;;;;926407;151;27355;-74
2023/03/08 10:26:33;;;;;;;7.67;6.63;;;6.40;88.90;;;;;;926026;151;27385;-74
2023/03/08 10:28:59;;;;;;;8.03;7.20;;;6.40;89.00;;;;;;911723;153;27407;-74
2023/03/08 10:31:26;;;;;;;7.70;6.90;;;6.40;88.90;;;;;;918420;153;27415;-74
2023/03/08 10:33:58;;;;;;;8.00;7.30;;;6.50;88.40;;;;;;921640;153;27429;-74
2023/03/08 10:36:25;;;;;;;8.07;6.80;;;6.50;88.20;;;;;;920325;151;27425;-73
2023/03/08 10:39:06;;;;;;;8.80;7.30;;;6.50;88.00;;;;;;920804;151;27685;-74
2023/03/08 10:41:35;;;;;;;8.63;6.63;;;6.50;88.00;;;;;;920685;151;27325;-74
2023/03/08 10:44:02;;;;;;;6.23;5.57;;;6.50;87.90;;;;;;917434;152;27500;-74
2023/03/08 10:46:32;;;;;;;7.87;6.43;;;6.50;87.80;;;;;;924659;151;27442;-74
2023/03/08 10:49:07;;;;;;;7.47;6.37;;;6.50;88.10;;;;;;903162;154;27350;-74
2023/03/08 10:51:34;;;;;;;7.17;6.10;;;6.50;88.20;;;;;;904697;153;27440;-74
2023/03/08 10:54:01;;;;;;;6.40;5.77;;;6.50;88.10;;;;;;904766;154;27390;-74
2023/03/08 10:56:32;;;;;;;6.77;6.10;;;6.50;88.40;;;;;;902464;155;27494;-74
2023/03/08 10:58:59;;;;;;;6.57;5.90;;;6.50;88.70;;;;;;917608;151;27465;-73
2023/03/08 11:01:28;;;;;;;6.57;5.97;;;6.50;88.20;;;;;;904526;154;27329;-73
2023/03/08 11:04:19;;;;;;;7.27;6.13;;;6.50;88.10;;;;;;902259;155;27413;-73
2023/03/08 11:06:45;;;;;;;6.70;5.47;;;6.50;87.90;;;;;;903873;155;27498;-73
2023/03/08 11:09:30;;;;;;;5.80;5.27;;;6.50;87.80;;;;;;919072;152;27493;-73
2023/03/08 11:11:56;;;;;;;7.40;5.97;;;6.50;88.20;;;;;;916308;152;27777;-73
2023/03/08 11:14:23;;;;;;;6.27;5.67;;;6.50;88.30;;;;;;921580;151;27516;-73
2023/03/08 11:17:14;;;;;;;8.07;6.37;;;6.50;88.50;;;;;;922805;151;27395;-73
2023/03/08 11:20:15;;;;;;;6.17;5.57;;;6.60;88.50;;;;;;937587;148;27283;-73
2023/03/08 11:23:02;;;;;;;5.67;5.17;;;6.60;88.20;;;;;;922603;151;27434;-75
2023/03/08 11:25:38;;;;;;;6.27;5.67;;;6.60;88.30;;;;;;922630;151;27433;-73
2023/03/08 11:28:19;;;;;;;6.07;5.13;;;6.50;88.90;;;;;;939604;148;27295;-73
2023/03/08 11:30:49;;;;;;;8.67;5.50;;;6.60;89.50;;;;;;900493;154;27540;-73
2023/03/08 11:33:30;;;;;;;6.00;5.40;;;6.60;89.80;;;;;;902127;155;28013;-73
2023/03/08 11:36:06;;;;;;;5.57;5.00;;;6.60;89.90;;;;;;912048;154;27330;-73
2023/03/08 11:38:33;;;;;;;5.83;5.23;;;6.60;90.10;;;;;;901864;155;27376;-73
2023/03/08 11:41:05;;;;;;;6.07;5.47;;;6.60;90.10;;;;;;916073;152;27419;-73
2023/03/08 11:43:32;;;;;;;7.83;5.87;;;6.70;90.30;;;;;;921058;151;27408;-73
2023/03/08 11:45:58;;;;;;;6.60;5.40;;;6.70;90.30;;;;;;938908;148;27350;-73
2023/03/08 11:48:31;;;;;;;5.47;4.97;;;6.80;90.30;;;;;;910375;154;27325;-73
2023/03/08 11:51:09;;;;;;;5.50;5.00;;;6.80;90.40;;;;;;883499;154;27968;-73
2023/03/08 11:53:44;;;;;;;6.43;5.17;;;6.90;90.50;;;;;;915063;151;27960;-73
2023/03/08 11:56:17;;;;;;;7.67;5.47;;;6.90;90.60;;;;;;902863;154;27408;-73
2023/03/08 11:58:58;;;;;;;6.20;5.57;;;7.00;90.70;;;;;;890257;154;27310;-72
2023/03/08 12:01:31;;;;;;;6.50;5.20;;;7.00;90.60;;;;;;901402;154;27540;-73
2023/03/08 12:04:00;;;;;;;5.73;5.13;;;7.10;90.60;;;;;;939186;148;27397;-73
2023/03/08 12:06:39;;;;;;;5.57;5.03;;;7.10;90.70;;;;;;918714;151;27466;-73
2023/03/08 12:09:06;;;;;;;5.27;4.77;;;7.10;90.40;;;;;;901607;155;27451;-73
2023/03/08 12:11:32;;;;;;;5.30;4.70;;;7.20;90.80;;;;;;902116;155;27423;-72
2023/03/08 12:14:12;;;;;;;5.97;5.30;;;7.20;90.80;;;;;;902737;154;28054;-73
2023/03/08 12:16:40;;;;;;;6.07;5.20;;;7.20;90.90;;;;;;902720;153;27472;-75
2023/03/08 12:19:25;;;;;;;7.17;5.17;;;7.30;91.00;;;;;;901401;155;27415;-75
2023/03/08 12:22:07;;;;;;;5.30;4.80;;;7.30;91.10;;;;;;919244;152;27421;-74
2023/03/08 12:24:45;;;;;;;4.60;4.20;;;7.40;91.10;;;;;;905120;153;27453;-73
2023/03/08 12:27:18;;;;;;;4.90;4.37;;;7.40;91.10;;;;;;899799;153;27511;-73
2023/03/08 12:30:09;;;;;;;4.87;4.47;;;7.40;91.10;;;;;;919404;151;27359;-73
2023/03/08 12:32:38;;;;;;;4.57;4.17;;;7.40;91.10;;;;;;910570;154;27345;-73
2023/03/08 12:35:05;;;;;;;4.27;3.93;;;7.50;91.10;;;;;;906794;153;27542;-73
2023/03/08 12:37:31;;;;;;;5.20;4.47;;;7.50;91.40;;;;;;918358;153;27411;-73
2023/03/08 12:40:06;;;;;;;4.17;3.80;;;7.50;91.60;;;;;;927242;151;27347;-73
2023/03/08 12:42:36;;;;;;;4.37;3.97;;;7.60;91.50;;;;;;906840;153;27386;-73
2023/03/08 12:45:09;;;;;;;4.70;4.30;;;7.60;91.60;;;;;;908753;153;27427;-73
2023/03/08 12:47:35;;;;;;;4.40;4.00;;;7.60;91.60;;;;;;908329;153;27518;-73
2023/03/08 12:50:08;;;;;;;4.73;4.33;;;7.70;91.90;;;;;;908991;153;27342;-73
2023/03/08 12:52:35;;;;;;;4.00;3.70;;;7.70;92.00;;;;;;909938;153;27335;-73
2023/03/08 12:55:19;;;;;;;5.03;4.13;;;7.70;91.80;;;;;;926928;151;27471;-73
2023/03/08 12:57:46;;;;;;;4.70;4.30;;;7.80;91.80;;;;;;930372;150;27503;-73
2023/03/08 13:00:25;;;;;;;4.60;4.17;;;7.80;91.80;;;;;;927715;150;27460;-73
2023/03/08 13:03:09;;;;;;;4.33;4.00;;;7.80;91.80;;;;;;907894;153;27470;-73